Time;durP1;ratioP1;P1;durP2;ratioP2;P2;SDS_P1;SDS_P2;PMS_P1;PMS_P2;Temp;Humidity;BMP_temperature;BMP_pressure;BME280_temperature;BME280_humidity;BME280_pressure;Samples;Min_cycle;Max_cycle;Signal;HPM_P1;HPM_P2
2023/10/08 00:03:13;;;;;;;4.80;2.20;;;14.30;99.90;;;;;;7377391;19;20011;-71
2023/10/08 00:05:41;;;;;;;9.43;6.85;;;14.20;99.90;;;;;;7371911;19;20042;-64
2023/10/08 00:08:11;;;;;;;5.55;3.55;;;14.20;99.90;;;;;;7379215;19;20027;-64
2023/10/08 00:10:41;;;;;;;3.95;2.47;;;14.10;99.90;;;;;;7378746;19;20050;-70
2023/10/08 00:13:09;;;;;;;8.32;6.70;;;14.00;99.90;;;;;;7372792;19;20026;-71
2023/10/08 00:15:36;;;;;;;5.90;2.50;;;14.00;99.90;;;;;;7369314;19;20030;-71
2023/10/08 00:18:07;;;;;;;4.15;2.65;;;14.10;99.90;;;;;;7371825;19;20026;-71
2023/10/08 00:20:56;;;;;;;2.90;1.80;;;14.00;99.90;;;;;;7368013;19;20851;-64
2023/10/08 00:23:25;;;;;;;2.83;1.73;;;14.00;99.90;;;;;;7377935;19;20026;-63
2023/10/08 00:25:54;;;;;;;3.00;2.30;;;14.00;99.90;;;;;;7384221;19;20090;-63
2023/10/08 00:28:21;;;;;;;2.53;1.83;;;14.00;99.90;;;;;;7388102;19;20078;-64
2023/10/08 00:30:49;;;;;;;3.60;1.92;;;14.00;99.90;;;;;;7386948;19;20018;-63
2023/10/08 00:33:16;;;;;;;4.53;2.30;;;14.00;99.90;;;;;;7385125;19;20041;-64
2023/10/08 00:35:43;;;;;;;4.38;2.65;;;14.00;99.90;;;;;;7389720;19;20060;-64
2023/10/08 00:38:20;;;;;;;6.57;5.25;;;14.00;99.90;;;;;;7382594;19;20025;-63
2023/10/08 00:40:50;;;;;;;4.13;1.88;;;14.00;99.90;;;;;;7388091;19;20018;-63
2023/10/08 00:43:36;;;;;;;3.88;1.90;;;14.00;99.90;;;;;;7384883;19;20007;-71
2023/10/08 00:46:24;;;;;;;6.63;4.93;;;13.90;99.90;;;;;;7377343;19;20094;-63
2023/10/08 00:48:54;;;;;;;6.60;2.47;;;13.90;99.90;;;;;;7384516;19;20014;-63
2023/10/08 00:51:30;;;;;;;2.70;1.75;;;13.90;99.90;;;;;;7383346;19;20011;-64
2023/10/08 00:54:06;;;;;;;2.85;1.95;;;13.90;99.90;;;;;;7386078;19;20022;-64
2023/10/08 00:59:45;;;;;;;3.03;2.00;;;13.90;99.90;;;;;;7375184;19;20014;-71
2023/10/08 01:02:15;;;;;;;3.90;2.17;;;13.90;99.90;;;;;;7377432;19;20064;-71
2023/10/08 01:04:44;;;;;;;5.15;3.42;;;13.80;99.90;;;;;;7378002;19;20402;-64
2023/10/08 01:07:18;;;;;;;3.15;2.63;;;13.70;99.90;;;;;;7382876;19;20391;-64
2023/10/08 01:09:51;;;;;;;4.10;2.72;;;13.70;99.90;;;;;;7382643;19;20015;-64
2023/10/08 01:12:26;;;;;;;6.70;3.30;;;13.70;99.90;;;;;;7384001;19;20114;-63
2023/10/08 01:14:53;;;;;;;4.93;3.35;;;13.70;99.90;;;;;;7382374;19;20045;-70
2023/10/08 01:17:26;;;;;;;7.80;5.70;;;13.70;99.90;;;;;;7367942;19;20022;-70
2023/10/08 01:19:56;;;;;;;6.13;4.22;;;13.70;99.90;;;;;;7371192;19;20029;-70
2023/10/08 01:22:28;;;;;;;8.98;5.70;;;13.70;99.90;;;;;;7380869;19;21092;-64
2023/10/08 01:24:56;;;;;;;4.28;3.05;;;13.60;99.90;;;;;;7379997;19;20019;-63
2023/10/08 01:27:27;;;;;;;3.53;2.42;;;13.60;99.90;;;;;;7384663;19;20029;-63
2023/10/08 01:29:54;;;;;;;4.95;2.17;;;13.60;99.90;;;;;;7383766;19;20496;-63
2023/10/08 01:32:23;;;;;;;2.97;2.15;;;13.60;99.90;;;;;;7381935;19;20018;-63
2023/10/08 01:34:49;;;;;;;4.15;2.15;;;13.60;99.90;;;;;;7384639;19;20058;-62
2023/10/08 01:37:17;;;;;;;4.07;2.47;;;13.60;99.90;;;;;;7383186;19;20018;-63
2023/10/08 01:39:49;;;;;;;5.43;1.95;;;13.60;99.90;;;;;;7378611;19;20808;-70
2023/10/08 01:42:20;;;;;;;3.53;1.70;;;13.60;99.90;;;;;;7375443;19;20015;-70
2023/10/08 01:44:48;;;;;;;1.77;1.52;;;13.60;99.90;;;;;;7377825;19;20557;-71
2023/10/08 01:47:16;;;;;;;3.03;1.70;;;13.60;99.90;;;;;;7375432;19;20014;-70
2023/10/08 01:49:44;;;;;;;2.70;1.58;;;13.60;99.90;;;;;;7381767;19;20022;-63
2023/10/08 01:52:22;;;;;;;3.97;1.73;;;13.50;99.90;;;;;;7379121;19;20010;-63
2023/10/08 01:54:49;;;;;;;2.75;1.50;;;13.60;99.90;;;;;;7386122;19;20853;-63
2023/10/08 01:57:16;;;;;;;2.20;1.60;;;13.50;99.90;;;;;;7381096;19;20073;-63
2023/10/08 01:59:44;;;;;;;3.40;1.77;;;13.60;99.90;;;;;;7381117;19;20027;-63
2023/10/08 02:02:12;;;;;;;2.92;1.48;;;13.50;99.90;;;;;;7382236;19;20010;-64
2023/10/08 02:04:59;;;;;;;2.17;1.50;;;13.60;99.90;;;;;;7376235;19;20022;-70
2023/10/08 02:07:35;;;;;;;2.90;1.70;;;13.60;99.90;;;;;;7384550;19;20033;-63
2023/10/08 02:10:22;;;;;;;3.17;1.75;;;13.60;99.90;;;;;;7371434;19;20037;-71
2023/10/08 02:12:51;;;;;;;2.28;1.67;;;13.60;99.90;;;;;;7373041;19;20075;-64
2023/10/08 02:15:40;;;;;;;2.80;1.70;;;13.60;99.90;;;;;;7384116;19;20078;-63
2023/10/08 02:18:07;;;;;;;2.78;1.45;;;13.60;99.90;;;;;;7380793;19;20082;-63
2023/10/08 02:20:34;;;;;;;3.83;2.05;;;13.60;99.90;;;;;;7382507;19;20014;-63
2023/10/08 02:23:01;;;;;;;2.60;1.70;;;13.50;99.90;;;;;;7375789;19;20014;-71
2023/10/08 02:25:27;;;;;;;2.38;1.63;;;13.50;99.90;;;;;;7372043;19;20797;-70
2023/10/08 02:27:54;;;;;;;2.55;1.52;;;13.50;99.90;;;;;;7371632;19;20493;-70
2023/10/08 02:30:20;;;;;;;3.08;1.58;;;13.60;99.90;;;;;;7374697;19;20010;-70
2023/10/08 02:32:46;;;;;;;2.25;1.35;;;13.50;99.90;;;;;;7375738;19;20019;-70
2023/10/08 02:35:24;;;;;;;3.40;1.48;;;13.60;99.90;;;;;;7371630;19;20029;-70
2023/10/08 02:37:56;;;;;;;3.08;1.52;;;13.50;99.90;;;;;;7374105;19;20037;-63
2023/10/08 02:40:26;;;;;;;3.53;1.50;;;13.60;99.90;;;;;;7386647;19;20347;-63
2023/10/08 02:43:00;;;;;;;3.08;1.73;;;13.60;99.90;;;;;;7387572;19;20037;-64
2023/10/08 02:45:28;;;;;;;3.60;1.60;;;13.60;99.90;;;;;;7388520;19;20021;-64
2023/10/08 02:47:55;;;;;;;3.03;1.60;;;13.60;99.90;;;;;;7382267;19;21709;-64
2023/10/08 02:50:22;;;;;;;3.05;1.67;;;13.60;99.90;;;;;;7384412;19;20022;-64
2023/10/08 02:52:50;;;;;;;5.07;1.98;;;13.60;99.90;;;;;;7385786;19;20855;-63
2023/10/08 02:55:36;;;;;;;2.45;1.58;;;13.60;99.90;;;;;;7385762;19;20018;-64
2023/10/08 02:58:14;;;;;;;4.07;1.75;;;13.50;99.90;;;;;;7385041;19;20021;-64
2023/10/08 03:00:46;;;;;;;3.13;1.90;;;13.50;99.90;;;;;;7385756;19;20485;-70
2023/10/08 03:03:18;;;;;;;3.17;2.20;;;13.50;99.90;;;;;;7380520;19;20054;-70
2023/10/08 03:05:46;;;;;;;3.22;1.85;;;13.50;99.90;;;;;;7380772;19;20029;-71
2023/10/08 03:08:19;;;;;;;3.60;1.63;;;13.50;99.90;;;;;;7372453;19;20030;-64
2023/10/08 03:10:55;;;;;;;3.95;1.95;;;13.50;99.90;;;;;;7379157;19;20428;-70
2023/10/08 03:13:22;;;;;;;4.15;2.08;;;13.40;99.90;;;;;;7375500;19;20839;-70
2023/10/08 03:18:36;;;;;;;4.15;1.88;;;13.40;99.90;;;;;;7383661;19;20042;-64
2023/10/08 03:21:05;;;;;;;4.05;2.13;;;13.40;99.90;;;;;;7382618;19;20015;-63
2023/10/08 03:23:35;;;;;;;3.53;2.25;;;13.30;99.90;;;;;;7385548;19;20018;-63
2023/10/08 03:26:10;;;;;;;3.97;2.10;;;13.30;99.90;;;;;;7387274;19;20585;-63
2023/10/08 03:28:41;;;;;;;4.55;2.30;;;13.40;99.90;;;;;;7382780;19;21921;-63
2023/10/08 03:31:17;;;;;;;5.03;2.60;;;13.30;99.90;;;;;;7380608;19;20026;-69
2023/10/08 03:33:51;;;;;;;5.80;2.35;;;13.30;99.90;;;;;;7375199;19;20074;-63
2023/10/08 03:36:21;;;;;;;6.05;2.60;;;13.30;99.90;;;;;;7383075;19;20093;-63
2023/10/08 03:38:50;;;;;;;4.82;2.60;;;13.30;99.90;;;;;;7370984;19;20019;-63
2023/10/08 03:41:29;;;;;;;4.80;2.13;;;13.30;99.90;;;;;;7376338;19;20500;-64
2023/10/08 03:46:26;;;;;;;6.32;3.20;;;13.20;99.90;;;;;;7371580;19;20566;-69
2023/10/08 03:48:52;;;;;;;4.75;2.67;;;13.30;99.90;;;;;;7368946;19;20025;-70
2023/10/08 03:51:22;;;;;;;4.35;2.35;;;13.30;99.90;;;;;;7372278;19;20474;-71
2023/10/08 03:53:59;;;;;;;3.53;2.28;;;13.30;99.90;;;;;;7368046;19;20010;-70
2023/10/08 03:56:29;;;;;;;5.03;3.13;;;13.30;99.90;;;;;;7371922;19;20785;-71
2023/10/08 03:59:00;;;;;;;5.30;3.00;;;13.20;99.90;;;;;;7376245;19;20022;-64
2023/10/08 04:01:31;;;;;;;5.27;2.50;;;13.20;99.90;;;;;;7384332;19;20025;-64
2023/10/08 04:03:59;;;;;;;4.20;2.45;;;13.20;99.90;;;;;;7384065;19;20029;-64
2023/10/08 04:07:24;;;;;;;5.63;2.60;;;13.20;99.90;;;;;;7383683;19;20014;-64
2023/10/08 04:09:25;;;;;;;7.17;2.50;;;13.20;99.90;;;;;;7381471;19;20039;-64
2023/10/08 04:11:53;;;;;;;3.83;2.30;;;13.20;99.90;;;;;;7376978;19;20022;-71
2023/10/08 04:14:23;;;;;;;4.05;2.40;;;13.20;99.90;;;;;;7381598;19;20062;-64
2023/10/08 04:16:51;;;;;;;4.28;1.90;;;13.20;99.90;;;;;;7383398;19;20576;-63
2023/10/08 04:19:29;;;;;;;6.22;2.40;;;13.20;99.90;;;;;;7379968;19;20498;-63
2023/10/08 04:21:56;;;;;;;3.85;1.92;;;13.30;99.90;;;;;;7382892;19;20362;-63
2023/10/08 04:24:29;;;;;;;4.03;2.13;;;13.20;99.90;;;;;;7373786;19;20465;-71
2023/10/08 04:27:02;;;;;;;4.03;2.00;;;13.20;99.90;;;;;;7369600;19;20074;-71
2023/10/08 04:29:32;;;;;;;8.35;2.80;;;13.20;99.90;;;;;;7368621;19;20014;-71
2023/10/08 04:32:24;;;;;;;5.47;2.58;;;13.20;99.90;;;;;;7371903;19;20477;-71
2023/10/08 04:34:49;;;;;;;5.68;2.45;;;13.20;99.90;;;;;;7371407;19;20463;-71
2023/10/08 04:37:20;;;;;;;5.80;2.58;;;13.20;99.90;;;;;;7376571;19;20015;-64
2023/10/08 04:39:58;;;;;;;5.40;2.30;;;13.20;99.90;;;;;;7384104;19;20023;-62
2023/10/08 04:42:27;;;;;;;6.72;2.58;;;13.10;99.90;;;;;;7382377;19;20018;-63
2023/10/08 04:45:02;;;;;;;4.57;2.65;;;13.20;99.90;;;;;;7384940;19;20364;-64
2023/10/08 04:47:32;;;;;;;5.45;2.08;;;13.20;99.90;;;;;;7383621;19;20018;-66
2023/10/08 04:49:58;;;;;;;3.95;2.15;;;13.20;99.90;;;;;;7384890;19;20039;-62
2023/10/08 04:52:27;;;;;;;9.95;2.92;;;13.20;99.90;;;;;;7381616;19;20039;-64
2023/10/08 04:54:54;;;;;;;5.13;2.35;;;13.20;99.90;;;;;;7382055;19;20031;-64
2023/10/08 04:57:22;;;;;;;6.97;2.17;;;13.20;99.90;;;;;;7382797;19;20019;-64
2023/10/08 04:59:53;;;;;;;4.53;1.98;;;13.20;99.90;;;;;;7378411;19;20470;-71
2023/10/08 05:02:22;;;;;;;7.63;2.13;;;13.20;99.90;;;;;;7371057;19;20018;-70
2023/10/08 05:08:01;;;;;;;4.70;1.90;;;13.10;99.90;;;;;;7368932;19;20039;-70
2023/10/08 05:16:06;;;;;;;6.22;1.80;;;13.10;99.90;;;;;;7377812;19;20086;-70
2023/10/08 05:31:47;;;;;;;5.18;1.67;;;13.10;99.90;;;;;;7386716;19;20018;-62
2023/10/08 05:42:14;;;;;;;5.10;1.60;;;13.00;99.90;;;;;;7387560;19;20018;-64
2023/10/08 05:55:33;;;;;;;6.95;1.60;;;13.10;99.90;;;;;;7377563;19;20015;-64
2023/10/08 05:58:13;;;;;;;5.20;1.90;;;13.10;99.90;;;;;;7382218;19;20030;-65
2023/10/08 06:03:32;;;;;;;3.92;1.65;;;13.00;99.90;;;;;;7387040;19;20066;-64
2023/10/08 06:12:10;;;;;;;8.43;1.88;;;13.10;99.90;;;;;;7382455;19;20039;-64
2023/10/08 06:14:28;;;;;;;4.53;1.30;;;13.10;99.90;;;;;;7382025;19;20014;-64
2023/10/08 06:19:40;;;;;;;5.03;1.60;;;13.10;99.90;;;;;;7383833;19;20022;-64
2023/10/08 06:22:06;;;;;;;9.38;1.88;;;13.20;99.90;;;;;;7382134;19;20395;-64
2023/10/08 06:24:34;;;;;;;5.38;1.80;;;13.20;99.90;;;;;;7371498;19;20015;-71
2023/10/08 06:27:04;;;;;;;3.90;1.65;;;13.20;99.90;;;;;;7367693;19;20039;-70
2023/10/08 06:29:31;;;;;;;7.57;2.00;;;13.30;99.90;;;;;;7368437;19;20018;-71
2023/10/08 06:32:02;;;;;;;4.82;1.90;;;13.30;99.90;;;;;;7375441;19;20796;-65
2023/10/08 06:34:31;;;;;;;6.40;1.85;;;13.30;99.90;;;;;;7379005;19;20418;-64
2023/10/08 06:36:59;;;;;;;8.43;2.03;;;13.30;99.90;;;;;;7382453;19;20624;-63
2023/10/08 06:39:33;;;;;;;5.43;2.10;;;13.30;99.90;;;;;;7383562;19;20014;-63
2023/10/08 06:42:00;;;;;;;7.95;2.75;;;13.30;99.90;;;;;;7382399;19;20619;-63
2023/10/08 06:44:33;;;;;;;8.48;2.53;;;13.30;99.90;;;;;;7381426;19;20014;-63
2023/10/08 06:46:59;;;;;;;5.75;2.45;;;13.40;99.90;;;;;;7379354;19;20023;-64
2023/10/08 06:49:25;;;;;;;7.25;2.38;;;13.40;99.90;;;;;;7381274;19;20019;-64
2023/10/08 06:51:53;;;;;;;10.10;2.50;;;13.50;99.90;;;;;;7381360;19;20021;-62
2023/10/08 06:54:22;;;;;;;7.70;1.98;;;13.50;99.90;;;;;;7382459;19;20383;-63
2023/10/08 06:56:53;;;;;;;4.50;2.10;;;13.50;99.90;;;;;;7382271;19;20015;-71
2023/10/08 06:59:23;;;;;;;5.88;2.13;;;13.50;99.90;;;;;;7371992;19;20030;-70
2023/10/08 07:01:52;;;;;;;4.95;1.90;;;13.60;99.90;;;;;;7375475;19;20526;-65
2023/10/08 07:04:18;;;;;;;7.10;2.08;;;13.60;99.90;;;;;;7384421;19;20022;-64
2023/10/08 07:06:48;;;;;;;4.75;2.53;;;13.60;99.90;;;;;;7382242;19;20034;-64
2023/10/08 07:11:54;;;;;;;4.85;2.00;;;13.70;99.90;;;;;;7374125;19;20078;-71
2023/10/08 07:14:29;;;;;;;5.97;2.08;;;13.70;99.90;;;;;;7367170;19;20585;-71
2023/10/08 07:16:58;;;;;;;6.13;2.42;;;13.60;99.90;;;;;;7370641;19;20018;-72
2023/10/08 07:19:32;;;;;;;7.10;2.00;;;13.70;99.90;;;;;;7370002;19;20034;-70
2023/10/08 07:22:45;;;;;;;6.43;2.25;;;13.70;99.90;;;;;;7376275;19;20022;-65
2023/10/08 07:24:50;;;;;;;6.40;2.30;;;13.70;99.90;;;;;;7382495;19;20031;-65
2023/10/08 07:27:29;;;;;;;9.35;2.45;;;13.70;99.90;;;;;;7377883;19;20022;-69
2023/10/08 07:29:56;;;;;;;5.57;1.98;;;13.80;99.90;;;;;;7374724;19;20018;-64
2023/10/08 07:32:32;;;;;;;5.78;2.28;;;13.90;99.90;;;;;;7378236;19;20026;-63
2023/10/08 07:35:38;;;;;;;6.57;1.92;;;14.00;99.90;;;;;;7374125;19;20620;-68
2023/10/08 07:37:54;;;;;;;6.07;2.10;;;14.10;99.90;;;;;;7368846;19;20876;-70
2023/10/08 07:40:21;;;;;;;7.50;1.67;;;14.20;99.90;;;;;;7370949;19;20030;-70
2023/10/08 07:42:51;;;;;;;6.55;1.55;;;14.20;99.90;;;;;;7370890;19;20127;-71
2023/10/08 07:45:21;;;;;;;8.00;2.22;;;14.30;99.90;;;;;;7369898;19;20643;-70
2023/10/08 07:47:48;;;;;;;6.65;1.90;;;14.20;99.90;;;;;;7371158;19;20021;-63
2023/10/08 07:50:16;;;;;;;4.90;1.95;;;14.30;99.90;;;;;;7377366;19;20006;-68
2023/10/08 07:52:44;;;;;;;5.40;1.48;;;14.30;99.90;;;;;;7372766;19;20052;-70
2023/10/08 07:55:17;;;;;;;5.15;1.98;;;14.40;99.90;;;;;;7372145;19;20030;-69
2023/10/08 07:57:44;;;;;;;4.88;1.70;;;14.50;99.90;;;;;;7371423;19;20015;-64
2023/10/08 08:00:25;;;;;;;8.73;2.28;;;14.60;99.90;;;;;;7381668;19;20025;-62
2023/10/08 08:02:54;;;;;;;8.50;2.07;;;14.70;99.90;;;;;;7375262;19;20038;-63
2023/10/08 08:05:21;;;;;;;6.20;2.00;;;14.80;99.90;;;;;;7368854;19;20021;-70
2023/10/08 08:07:50;;;;;;;8.88;2.15;;;14.80;99.90;;;;;;7372348;19;20478;-65
2023/10/08 08:10:18;;;;;;;5.75;1.77;;;14.80;99.90;;;;;;7373770;19;20566;-64
2023/10/08 08:12:45;;;;;;;6.22;1.40;;;15.30;99.90;;;;;;7382133;19;20019;-64
2023/10/08 08:15:15;;;;;;;5.82;1.70;;;15.80;99.90;;;;;;7376040;19;20018;-64
2023/10/08 08:17:44;;;;;;;4.80;2.00;;;16.00;99.90;;;;;;7381923;19;20418;-64
2023/10/08 08:20:17;;;;;;;3.88;1.40;;;16.40;99.90;;;;;;7382586;19;20027;-65
2023/10/08 08:22:50;;;;;;;7.22;1.77;;;16.60;99.90;;;;;;7380619;19;20379;-65
2023/10/08 08:25:26;;;;;;;6.45;1.30;;;16.60;99.90;;;;;;7380864;19;20090;-63
2023/10/08 08:27:53;;;;;;;5.53;1.23;;;16.50;99.90;;;;;;7380919;19;20029;-64
2023/10/08 08:30:20;;;;;;;9.63;2.63;;;16.40;99.90;;;;;;7373286;19;20030;-70
2023/10/08 08:32:48;;;;;;;5.43;1.33;;;16.40;99.90;;;;;;7364753;19;20018;-71
2023/10/08 08:35:17;;;;;;;8.00;1.50;;;16.30;99.90;;;;;;7371018;19;20011;-66
2023/10/08 08:37:46;;;;;;;6.25;1.42;;;16.30;99.90;;;;;;7367116;19;20018;-70
2023/10/08 08:40:18;;;;;;;7.65;1.42;;;16.40;99.90;;;;;;7369292;19;20015;-70
2023/10/08 08:42:52;;;;;;;4.35;1.50;;;16.20;99.90;;;;;;7369128;19;20021;-70
2023/10/08 08:45:24;;;;;;;7.47;1.50;;;16.10;99.90;;;;;;7366288;19;20030;-70
2023/10/08 08:47:55;;;;;;;7.10;1.80;;;16.10;99.90;;;;;;7375547;19;20019;-70
2023/10/08 08:50:22;;;;;;;7.10;1.75;;;16.20;99.90;;;;;;7375618;19;20062;-71
2023/10/08 08:52:48;;;;;;;7.35;1.70;;;16.40;99.90;;;;;;7374297;19;20049;-66
2023/10/08 08:55:16;;;;;;;5.97;2.00;;;16.60;99.90;;;;;;7377998;19;20042;-69
2023/10/08 08:57:53;;;;;;;5.07;1.30;;;16.70;99.90;;;;;;7377897;19;20018;-65
2023/10/08 09:00:20;;;;;;;5.65;1.65;;;16.90;99.90;;;;;;7386457;19;20391;-65
2023/10/08 09:02:49;;;;;;;3.40;1.30;;;16.80;99.90;;;;;;7380775;19;20075;-64
2023/10/08 09:05:25;;;;;;;10.25;1.67;;;16.80;99.90;;;;;;7383550;19;20043;-65
2023/10/08 09:07:54;;;;;;;6.70;1.52;;;16.90;99.90;;;;;;7382686;19;20876;-65
2023/10/08 09:10:28;;;;;;;8.13;1.75;;;16.80;99.90;;;;;;7385226;19;20067;-64
2023/10/08 09:12:59;;;;;;;5.80;1.10;;;16.90;99.90;;;;;;7382336;19;20029;-64
2023/10/08 09:15:26;;;;;;;6.32;1.63;;;16.90;99.90;;;;;;7383863;19;20022;-66
2023/10/08 09:17:54;;;;;;;6.30;1.30;;;17.30;99.90;;;;;;7383564;19;20018;-65
2023/10/08 09:20:21;;;;;;;9.25;1.48;;;18.30;99.90;;;;;;7381980;19;20842;-65
2023/10/08 09:23:14;;;;;;;7.40;1.73;;;19.10;99.90;;;;;;7384465;19;20054;-66
2023/10/08 09:25:42;;;;;;;9.50;1.50;;;20.00;99.90;;;;;;7382007;19;20022;-65
2023/10/08 09:28:12;;;;;;;6.38;1.30;;;20.20;99.90;;;;;;7384929;19;20483;-65
2023/10/08 09:30:40;;;;;;;5.75;1.30;;;20.20;99.90;;;;;;7383088;19;20333;-64
2023/10/08 09:33:17;;;;;;;6.00;1.30;;;20.60;99.90;;;;;;7383427;19;20070;-65
2023/10/08 09:35:46;;;;;;;5.35;1.20;;;20.40;99.90;;;;;;7383186;19;20043;-64
2023/10/08 09:38:13;;;;;;;9.10;1.85;;;19.90;99.90;;;;;;7387736;19;20014;-67
2023/10/08 09:40:46;;;;;;;8.02;1.55;;;19.90;99.90;;;;;;7393216;19;20387;-64
2023/10/08 09:43:15;;;;;;;7.95;1.65;;;19.30;99.90;;;;;;7389963;19;20729;-69
2023/10/08 09:46:10;;;;;;;6.20;1.58;;;19.30;99.90;;;;;;7399810;19;20481;-68
2023/10/08 09:48:40;;;;;;;6.55;1.50;;;19.30;99.90;;;;;;7395841;19;20014;-70
2023/10/08 09:51:12;;;;;;;5.35;1.25;;;20.10;99.90;;;;;;7393693;19;20414;-69
2023/10/08 09:54:10;;;;;;;7.47;1.50;;;20.40;99.90;;;;;;7396011;19;20018;-70
2023/10/08 09:56:40;;;;;;;6.30;1.45;;;21.20;99.90;;;;;;7389736;19;20650;-70
2023/10/08 09:59:09;;;;;;;5.17;1.20;;;21.70;99.90;;;;;;7390671;19;20102;-70
2023/10/08 10:01:40;;;;;;;6.10;1.35;;;21.80;99.90;;;;;;7394236;19;20278;-69
2023/10/08 10:04:10;;;;;;;4.63;1.50;;;22.40;99.90;;;;;;7388352;19;20022;-64
2023/10/08 10:06:37;;;;;;;6.80;2.30;;;22.30;99.90;;;;;;7386007;19;20014;-70
2023/10/08 10:09:15;;;;;;;6.97;1.30;;;22.40;99.90;;;;;;7393065;19;20022;-69
2023/10/08 10:11:49;;;;;;;6.85;1.58;;;22.10;99.90;;;;;;7381306;19;20018;-65
2023/10/08 10:14:17;;;;;;;8.02;1.63;;;21.80;97.30;;;;;;7381294;19;20011;-70
2023/10/08 10:16:49;;;;;;;7.28;3.42;;;21.70;99.20;;;;;;7393744;19;20025;-64
2023/10/08 10:19:20;;;;;;;5.88;1.30;;;21.30;97.60;;;;;;7377857;19;20025;-64
2023/10/08 10:21:50;;;;;;;9.02;1.70;;;22.00;96.00;;;;;;7382347;19;20019;-70
2023/10/08 10:24:32;;;;;;;5.78;1.40;;;22.40;95.80;;;;;;7391477;19;20048;-65
2023/10/08 10:27:16;;;;;;;6.82;1.40;;;22.30;94.80;;;;;;7386827;19;20025;-64
2023/10/08 10:29:43;;;;;;;6.90;1.42;;;23.20;94.30;;;;;;7384815;19;20019;-64
2023/10/08 10:32:14;;;;;;;8.20;1.60;;;23.80;93.10;;;;;;7380117;19;20882;-68
2023/10/08 10:34:43;;;;;;;7.38;1.85;;;23.20;90.30;;;;;;7391105;19;20050;-71
2023/10/08 10:37:19;;;;;;;7.05;1.25;;;23.00;90.00;;;;;;7376310;19;20571;-69
2023/10/08 10:39:59;;;;;;;6.55;1.33;;;22.20;91.80;;;;;;7382619;19;20029;-65
2023/10/08 10:42:28;;;;;;;11.38;2.38;;;21.60;91.00;;;;;;7377547;19;20018;-63
2023/10/08 10:44:56;;;;;;;14.80;6.38;;;20.90;93.60;;;;;;7383904;19;20051;-69
2023/10/08 10:47:26;;;;;;;9.20;2.80;;;21.00;94.20;;;;;;7387236;19;20035;-63
2023/10/08 10:52:32;;;;;;;4.10;1.60;;;21.60;93.00;;;;;;7385433;19;20362;-69
2023/10/08 10:55:58;;;;;;;13.25;5.32;;;22.00;92.00;;;;;;7388483;19;20011;-63
2023/10/08 10:58:03;;;;;;;17.02;9.82;;;22.00;90.90;;;;;;7372826;19;20014;-64
2023/10/08 11:03:03;;;;;;;7.72;1.48;;;23.70;90.00;;;;;;7379205;19;20014;-65
2023/10/08 11:05:37;;;;;;;10.35;2.38;;;24.30;85.10;;;;;;7374599;19;20047;-65
2023/10/08 11:08:08;;;;;;;5.88;1.75;;;24.60;80.70;;;;;;7377438;19;20019;-64
2023/10/08 11:10:51;;;;;;;7.68;1.60;;;24.50;74.90;;;;;;7373275;19;20018;-63
2023/10/08 11:13:28;;;;;;;6.80;1.52;;;24.70;72.30;;;;;;7376922;19;20052;-69
2023/10/08 11:15:57;;;;;;;5.65;1.98;;;24.40;73.00;;;;;;7378324;19;20041;-69
2023/10/08 11:18:27;;;;;;;6.00;1.60;;;24.20;74.10;;;;;;7374651;19;20765;-65
2023/10/08 11:21:13;;;;;;;7.60;2.17;;;24.30;73.90;;;;;;7374316;19;20522;-63
2023/10/08 11:23:52;;;;;;;5.88;1.45;;;24.20;72.00;;;;;;7372770;19;20018;-65
2023/10/08 11:26:30;;;;;;;8.00;1.80;;;23.60;73.80;;;;;;7378842;19;20026;-64
2023/10/08 11:28:56;;;;;;;7.28;1.67;;;23.30;73.50;;;;;;7378498;19;20015;-69
2023/10/08 11:31:25;;;;;;;6.65;1.67;;;23.10;74.60;;;;;;7375055;19;20046;-69
2023/10/08 11:33:54;;;;;;;11.23;5.80;;;22.80;74.00;;;;;;7373379;19;20767;-68
2023/10/08 11:36:40;;;;;;;6.47;1.40;;;22.40;75.50;;;;;;7370150;19;20025;-69
2023/10/08 11:39:21;;;;;;;5.90;1.40;;;22.30;76.70;;;;;;7378501;19;20090;-69
2023/10/08 11:42:22;;;;;;;5.85;1.55;;;22.10;78.30;;;;;;7399105;19;20018;-69
2023/10/08 11:44:52;;;;;;;5.60;1.35;;;22.20;80.00;;;;;;7387477;19;21212;-63
2023/10/08 11:47:21;;;;;;;7.68;1.40;;;22.40;79.50;;;;;;7376037;19;20030;-63
2023/10/08 11:49:50;;;;;;;4.20;1.30;;;23.00;77.40;;;;;;7377191;19;20478;-64
2023/10/08 11:52:21;;;;;;;5.32;1.77;;;23.50;74.40;;;;;;7378374;19;20380;-64
2023/10/08 11:54:48;;;;;;;6.00;1.47;;;24.10;74.20;;;;;;7374951;19;20019;-65
2023/10/08 11:57:21;;;;;;;5.95;1.33;;;24.70;73.40;;;;;;7377848;19;20018;-65
2023/10/08 11:59:48;;;;;;;6.53;1.42;;;25.40;72.30;;;;;;7377830;19;20018;-65
2023/10/08 12:02:16;;;;;;;11.95;1.58;;;26.20;69.90;;;;;;7378892;19;20015;-65
2023/10/08 12:04:47;;;;;;;25.13;20.27;;;25.90;67.90;;;;;;7372953;19;20074;-68
2023/10/08 12:07:17;;;;;;;90.32;81.82;;;26.60;67.30;;;;;;7371465;19;20025;-70
2023/10/08 12:09:44;;;;;;;10.95;8.52;;;27.20;67.30;;;;;;7372392;19;20019;-70
2023/10/08 12:12:13;;;;;;;18.35;16.25;;;26.90;63.60;;;;;;7373306;19;20022;-67
2023/10/08 12:14:40;;;;;;;10.50;2.20;;;25.90;64.40;;;;;;7372027;19;20019;-67
2023/10/08 12:17:11;;;;;;;23.60;20.30;;;25.20;65.50;;;;;;7370072;19;20018;-65
2023/10/08 12:19:40;;;;;;;11.70;6.75;;;24.40;67.20;;;;;;7371706;19;20015;-68
2023/10/08 12:22:08;;;;;;;11.07;6.10;;;24.00;68.80;;;;;;7369535;19;20019;-67
2023/10/08 12:24:35;;;;;;;9.05;1.85;;;23.50;69.70;;;;;;7373694;19;20043;-67
2023/10/08 12:27:03;;;;;;;7.68;3.10;;;23.40;69.10;;;;;;7375265;19;20668;-67
2023/10/08 12:29:31;;;;;;;8.48;3.58;;;23.50;69.40;;;;;;7374529;19;20804;-67
2023/10/08 12:31:59;;;;;;;8.40;4.00;;;23.40;70.00;;;;;;7369353;19;20045;-67
2023/10/08 12:34:29;;;;;;;6.47;1.70;;;23.50;70.20;;;;;;7371641;19;20470;-65
2023/10/08 12:36:56;;;;;;;11.93;6.75;;;23.70;70.40;;;;;;7369406;19;20054;-67
2023/10/08 12:39:28;;;;;;;8.52;2.08;;;23.50;70.00;;;;;;7378854;19;20014;-66
2023/10/08 12:41:54;;;;;;;8.27;2.50;;;23.20;70.80;;;;;;7371426;19;20018;-67
2023/10/08 12:44:21;;;;;;;19.17;14.55;;;23.40;71.60;;;;;;7380155;19;20015;-68
2023/10/08 12:46:48;;;;;;;9.80;2.95;;;24.00;69.90;;;;;;7369925;19;20028;-64
2023/10/08 12:49:15;;;;;;;20.02;11.52;;;24.50;67.90;;;;;;7377284;19;20094;-67
2023/10/08 12:51:45;;;;;;;12.80;4.25;;;24.40;68.50;;;;;;7374641;19;20023;-68
2023/10/08 12:54:12;;;;;;;8.93;1.98;;;25.00;67.60;;;;;;7381271;19;20719;-68
2023/10/08 12:56:44;;;;;;;6.97;1.55;;;25.70;65.70;;;;;;7376579;19;20011;-67
2023/10/08 12:59:20;;;;;;;103.95;93.40;;;25.60;65.00;;;;;;7375759;19;20015;-67
2023/10/08 13:01:50;;;;;;;9.02;2.20;;;25.50;65.80;;;;;;7369396;19;20718;-67
2023/10/08 13:04:27;;;;;;;16.77;10.57;;;24.60;65.90;;;;;;7373198;19;20019;-62
2023/10/08 13:07:00;;;;;;;5.97;1.60;;;24.70;67.40;;;;;;7373018;19;20491;-63
2023/10/08 13:09:30;;;;;;;9.13;1.73;;;24.10;67.20;;;;;;7366854;19;20657;-62
2023/10/08 13:11:59;;;;;;;6.55;1.75;;;23.60;66.70;;;;;;7371774;19;20506;-62
2023/10/08 13:14:25;;;;;;;6.07;1.20;;;23.70;67.70;;;;;;7370841;19;20017;-63
2023/10/08 13:16:55;;;;;;;6.20;1.45;;;24.50;67.90;;;;;;7371192;19;20019;-63
2023/10/08 13:19:26;;;;;;;9.07;3.10;;;24.80;67.00;;;;;;7370628;19;20007;-62
2023/10/08 13:21:52;;;;;;;7.07;1.45;;;24.20;67.60;;;;;;7368685;19;20385;-63
2023/10/08 13:24:19;;;;;;;6.15;1.52;;;24.50;67.60;;;;;;7370841;19;20026;-64
2023/10/08 13:26:47;;;;;;;6.90;1.50;;;25.10;66.50;;;;;;7367460;19;20048;-64
2023/10/08 13:29:14;;;;;;;9.68;5.10;;;25.20;64.40;;;;;;7369743;19;20719;-63
2023/10/08 13:31:41;;;;;;;6.43;1.50;;;25.70;64.20;;;;;;7368419;19;20023;-63
2023/10/08 13:34:12;;;;;;;9.48;1.42;;;25.80;63.50;;;;;;7380120;19;20042;-64
2023/10/08 13:36:39;;;;;;;6.88;2.33;;;25.90;63.40;;;;;;7376901;19;20015;-64
2023/10/08 13:39:09;;;;;;;5.32;1.45;;;26.00;64.00;;;;;;7372968;19;20018;-64
2023/10/08 13:41:41;;;;;;;8.48;2.33;;;25.60;63.40;;;;;;7375609;19;20434;-63
2023/10/08 13:44:07;;;;;;;9.27;2.03;;;24.30;63.60;;;;;;7378320;19;20035;-63
2023/10/08 13:46:36;;;;;;;8.75;2.00;;;23.30;65.60;;;;;;7370067;19;20025;-63
2023/10/08 13:49:05;;;;;;;9.75;3.28;;;22.50;67.60;;;;;;7376942;19;20038;-63
2023/10/08 13:51:34;;;;;;;8.02;1.63;;;22.00;69.50;;;;;;7372550;19;20026;-64
2023/10/08 13:54:02;;;;;;;10.27;1.60;;;21.50;70.70;;;;;;7376612;19;20014;-64
2023/10/08 13:56:32;;;;;;;5.72;1.63;;;21.10;71.90;;;;;;7375321;19;20407;-63
2023/10/08 13:59:11;;;;;;;8.50;1.80;;;20.70;73.60;;;;;;7373804;19;20032;-63
2023/10/08 14:01:40;;;;;;;5.03;1.63;;;20.40;75.50;;;;;;7377419;19;20026;-64
2023/10/08 14:04:07;;;;;;;7.32;1.40;;;20.20;75.10;;;;;;7375856;19;20102;-63
2023/10/08 14:06:35;;;;;;;8.98;1.35;;;20.10;75.30;;;;;;7376343;19;20029;-63
2023/10/08 14:09:12;;;;;;;4.43;1.40;;;19.80;76.40;;;;;;7375143;19;20039;-63
2023/10/08 14:11:38;;;;;;;6.15;1.55;;;19.70;77.60;;;;;;7375960;19;20705;-63
2023/10/08 14:14:07;;;;;;;9.70;1.65;;;19.70;77.80;;;;;;7369597;19;20025;-63
2023/10/08 14:16:41;;;;;;;5.97;1.75;;;19.60;80.50;;;;;;7374418;19;20018;-63